Aérodrome :
LOGIN :

S'inscrire | Disclaimer

   EN    FR    IT 

 










Légende :    VFR   VFR Marginal   IFR   IFR Intensif   IFR Très Intensif
Visi : 
Plafond : 
>= 8 km
>= 3000ft
5 à 8 km
1000 à 3000 ft
1500m à 5 km
500 à 1000 ft
800 à 1500m
200 à 500 ft
< 800m
< 200 ft
Symboles :   Orages  Brouillard  Fortes neiges  Fortes précipitations  Vent > 20 kt
SIGMETs :   Divers  Orages  Givrage  Turbulence  Onde Orograph.  Cendres Volcan.






- Altitude de l'aérodrome : 856 ft
- Code IATA : VGO


LEVX - Vigo Peinador

DERNIER METAR :
  • 072200Z 19007KT 150V230 0050 R19/0400N R01/225N -DZ FG VV001 11/11 Q1025 NOSIG

METARs EXPIRÉS :
  • 072130Z 20007KT 150V250 0050 R19/0450N R01/250N -DZ FG VV001 11/11 Q1025 NOSIG
  • 072100Z 21005KT 170V250 0050 R19/0450N R01/250N -DZ FG VV001 11/11 Q1025 NOSIG
  • 072030Z 20006KT 150V230 0100 R19/0650D R01/250N -DZ FG VV001 11/11 Q1024 NOSIG
  • 072000Z 19006KT 150V230 0150 R19/P2000 R01/400N DZ FG VV001 11/11 Q1025 NOSIG
  • 071930Z 19006KT 160V220 0200 R19/P2000 R01/600N DZ FG BKN002 BKN007 BKN016 11/11 Q1024 NOSIG

TAF AMD TAF LEVX
Valide du 07 à 18h jusqu'au 08 à 18h UTC


071831Z 0718/0818 22005KT 3000 -RADZ BCFG BKN012 TX13/0816Z TN09/0806Z
TEMPO 0718/0812 1400 BCFG BKN005
PROB40
TEMPO 0718/0818 0800 FG BKN003
PROB30
TEMPO 0718/0818 0350 FG VV001
PROB40
TEMPO 0806/0812 1400 RA



MET'MAP, la Météo Aéronautique d'un coup d'oeil ! - Copyright ORBIFLY Décembre 2007 - Disclaimer

ORBIFLY MET'MAP TEAM :

Programmation & Développement : Alexandra Zaïnal
Sur une idée originale de : Baudouin d'Aumeries
Assistance à la programmation : Marc-Olivier Méhu
Soutien technique & logistique : Manuel Goepfert

Contact : metmap@orbifly.com




SOURCES & CREDITS :

   NOAA